sensor_id;sensor_type;location;lat;lon;timestamp;P1;durP1;ratioP1;P2;durP2;ratioP2
29500;SDS011;16450;50.288;10.966;2022-11-20T00:00:33;18.10;;;9.27;;
29500;SDS011;16450;50.288;10.966;2022-11-20T00:03:34;20.93;;;9.93;;
29500;SDS011;16450;50.288;10.966;2022-11-20T00:06:34;20.37;;;9.27;;
29500;SDS011;16450;50.288;10.966;2022-11-20T00:09:35;17.60;;;8.80;;
29500;SDS011;16450;50.288;10.966;2022-11-20T00:12:36;19.17;;;9.37;;
29500;SDS011;16450;50.288;10.966;2022-11-20T00:15:36;17.73;;;9.27;;
29500;SDS011;16450;50.288;10.966;2022-11-20T00:18:37;18.70;;;8.27;;
29500;SDS011;16450;50.288;10.966;2022-11-20T00:21:37;18.97;;;8.00;;
29500;SDS011;16450;50.288;10.966;2022-11-20T00:24:38;19.17;;;8.63;;
29500;SDS011;16450;50.288;10.966;2022-11-20T00:27:39;18.03;;;8.50;;
29500;SDS011;16450;50.288;10.966;2022-11-20T00:30:40;16.47;;;8.70;;
29500;SDS011;16450;50.288;10.966;2022-11-20T00:33:41;17.43;;;9.07;;
29500;SDS011;16450;50.288;10.966;2022-11-20T00:36:42;19.03;;;8.93;;
29500;SDS011;16450;50.288;10.966;2022-11-20T00:39:43;18.97;;;8.43;;
29500;SDS011;16450;50.288;10.966;2022-11-20T00:42:44;17.93;;;9.00;;
29500;SDS011;16450;50.288;10.966;2022-11-20T00:45:44;17.17;;;8.53;;
29500;SDS011;16450;50.288;10.966;2022-11-20T00:48:45;20.27;;;9.07;;
29500;SDS011;16450;50.288;10.966;2022-11-20T00:51:49;19.77;;;9.00;;
29500;SDS011;16450;50.288;10.966;2022-11-20T00:54:49;19.53;;;9.77;;
29500;SDS011;16450;50.288;10.966;2022-11-20T00:57:50;20.70;;;10.60;;
29500;SDS011;16450;50.288;10.966;2022-11-20T01:00:51;24.10;;;11.00;;
29500;SDS011;16450;50.288;10.966;2022-11-20T01:03:52;25.23;;;11.57;;
29500;SDS011;16450;50.288;10.966;2022-11-20T01:06:55;21.60;;;10.97;;
29500;SDS011;16450;50.288;10.966;2022-11-20T01:09:55;24.17;;;11.03;;
29500;SDS011;16450;50.288;10.966;2022-11-20T01:12:56;22.90;;;11.37;;
29500;SDS011;16450;50.288;10.966;2022-11-20T01:16:17;25.33;;;11.67;;
29500;SDS011;16450;50.288;10.966;2022-11-20T01:19:26;22.23;;;11.20;;
29500;SDS011;16450;50.288;10.966;2022-11-20T01:22:26;24.97;;;11.47;;
29500;SDS011;16450;50.288;10.966;2022-11-20T01:25:27;26.03;;;12.17;;
29500;SDS011;16450;50.288;10.966;2022-11-20T01:28:28;24.30;;;11.43;;
29500;SDS011;16450;50.288;10.966;2022-11-20T01:31:29;22.97;;;11.67;;
29500;SDS011;16450;50.288;10.966;2022-11-20T01:34:35;19.37;;;10.47;;
29500;SDS011;16450;50.288;10.966;2022-11-20T01:37:35;20.37;;;10.13;;
29500;SDS011;16450;50.288;10.966;2022-11-20T01:40:36;23.10;;;10.73;;
29500;SDS011;16450;50.288;10.966;2022-11-20T01:43:36;22.90;;;10.50;;
29500;SDS011;16450;50.288;10.966;2022-11-20T01:46:38;23.40;;;11.13;;
29500;SDS011;16450;50.288;10.966;2022-11-20T01:49:41;22.27;;;10.80;;
29500;SDS011;16450;50.288;10.966;2022-11-20T01:52:48;23.97;;;11.57;;
29500;SDS011;16450;50.288;10.966;2022-11-20T01:55:56;22.33;;;11.10;;
29500;SDS011;16450;50.288;10.966;2022-11-20T01:58:59;20.97;;;10.20;;
29500;SDS011;16450;50.288;10.966;2022-11-20T02:02:03;19.67;;;9.23;;
29500;SDS011;16450;50.288;10.966;2022-11-20T02:05:27;21.70;;;10.40;;
29500;SDS011;16450;50.288;10.966;2022-11-20T02:08:28;20.47;;;10.03;;
29500;SDS011;16450;50.288;10.966;2022-11-20T02:11:30;19.67;;;10.30;;
29500;SDS011;16450;50.288;10.966;2022-11-20T02:14:31;23.43;;;10.03;;
29500;SDS011;16450;50.288;10.966;2022-11-20T02:17:32;20.00;;;10.43;;
29500;SDS011;16450;50.288;10.966;2022-11-20T02:20:32;19.20;;;9.57;;
29500;SDS011;16450;50.288;10.966;2022-11-20T02:23:38;20.33;;;9.93;;
29500;SDS011;16450;50.288;10.966;2022-11-20T02:26:49;20.83;;;11.23;;
29500;SDS011;16450;50.288;10.966;2022-11-20T02:32:58;19.00;;;9.73;;
29500;SDS011;16450;50.288;10.966;2022-11-20T02:35:58;19.00;;;10.10;;
29500;SDS011;16450;50.288;10.966;2022-11-20T02:38:59;19.47;;;9.67;;
29500;SDS011;16450;50.288;10.966;2022-11-20T02:42:00;20.63;;;10.20;;
29500;SDS011;16450;50.288;10.966;2022-11-20T02:45:01;19.13;;;9.23;;
29500;SDS011;16450;50.288;10.966;2022-11-20T02:48:02;18.63;;;9.73;;
29500;SDS011;16450;50.288;10.966;2022-11-20T02:51:03;18.97;;;9.17;;
29500;SDS011;16450;50.288;10.966;2022-11-20T02:54:03;20.10;;;9.77;;
29500;SDS011;16450;50.288;10.966;2022-11-20T02:57:04;21.77;;;11.13;;
29500;SDS011;16450;50.288;10.966;2022-11-20T03:00:05;22.30;;;11.30;;
29500;SDS011;16450;50.288;10.966;2022-11-20T03:03:07;22.10;;;11.87;;
29500;SDS011;16450;50.288;10.966;2022-11-20T03:06:07;29.97;;;14.63;;
29500;SDS011;16450;50.288;10.966;2022-11-20T03:09:08;25.13;;;13.50;;
29500;SDS011;16450;50.288;10.966;2022-11-20T03:12:09;28.87;;;14.23;;
29500;SDS011;16450;50.288;10.966;2022-11-20T03:15:09;28.47;;;13.83;;
29500;SDS011;16450;50.288;10.966;2022-11-20T03:18:10;29.97;;;14.43;;
29500;SDS011;16450;50.288;10.966;2022-11-20T03:21:11;28.00;;;14.63;;
29500;SDS011;16450;50.288;10.966;2022-11-20T03:24:13;29.83;;;14.73;;
29500;SDS011;16450;50.288;10.966;2022-11-20T03:27:14;29.73;;;14.97;;
29500;SDS011;16450;50.288;10.966;2022-11-20T03:30:15;31.20;;;15.13;;
29500;SDS011;16450;50.288;10.966;2022-11-20T03:33:15;29.87;;;14.13;;
29500;SDS011;16450;50.288;10.966;2022-11-20T03:36:17;29.90;;;15.13;;
29500;SDS011;16450;50.288;10.966;2022-11-20T03:39:19;28.97;;;14.50;;
29500;SDS011;16450;50.288;10.966;2022-11-20T03:42:19;27.93;;;14.10;;
29500;SDS011;16450;50.288;10.966;2022-11-20T03:45:38;25.97;;;13.73;;
29500;SDS011;16450;50.288;10.966;2022-11-20T03:48:39;27.03;;;14.67;;
29500;SDS011;16450;50.288;10.966;2022-11-20T03:51:39;28.90;;;14.17;;
29500;SDS011;16450;50.288;10.966;2022-11-20T03:54:40;29.53;;;14.47;;
29500;SDS011;16450;50.288;10.966;2022-11-20T03:57:41;32.10;;;15.03;;
29500;SDS011;16450;50.288;10.966;2022-11-20T04:00:41;29.60;;;13.73;;
29500;SDS011;16450;50.288;10.966;2022-11-20T04:03:42;24.03;;;13.10;;
29500;SDS011;16450;50.288;10.966;2022-11-20T04:06:44;27.27;;;14.73;;
29500;SDS011;16450;50.288;10.966;2022-11-20T04:09:45;31.30;;;15.27;;
29500;SDS011;16450;50.288;10.966;2022-11-20T04:12:45;29.73;;;15.10;;
29500;SDS011;16450;50.288;10.966;2022-11-20T04:15:46;29.53;;;14.90;;
29500;SDS011;16450;50.288;10.966;2022-11-20T04:18:47;28.03;;;14.10;;
29500;SDS011;16450;50.288;10.966;2022-11-20T04:21:53;26.33;;;14.00;;
29500;SDS011;16450;50.288;10.966;2022-11-20T04:24:54;27.77;;;14.17;;
29500;SDS011;16450;50.288;10.966;2022-11-20T04:27:54;25.03;;;13.50;;
29500;SDS011;16450;50.288;10.966;2022-11-20T04:31:01;29.30;;;14.87;;
29500;SDS011;16450;50.288;10.966;2022-11-20T04:34:03;25.60;;;13.57;;
29500;SDS011;16450;50.288;10.966;2022-11-20T04:37:05;27.37;;;13.50;;
29500;SDS011;16450;50.288;10.966;2022-11-20T04:40:06;26.90;;;13.60;;
29500;SDS011;16450;50.288;10.966;2022-11-20T04:43:07;27.67;;;14.27;;
29500;SDS011;16450;50.288;10.966;2022-11-20T04:46:07;30.83;;;14.43;;
29500;SDS011;16450;50.288;10.966;2022-11-20T04:49:08;29.37;;;15.30;;
29500;SDS011;16450;50.288;10.966;2022-11-20T04:52:10;29.97;;;14.97;;
29500;SDS011;16450;50.288;10.966;2022-11-20T04:55:10;30.30;;;14.70;;
29500;SDS011;16450;50.288;10.966;2022-11-20T04:58:11;28.27;;;15.37;;
29500;SDS011;16450;50.288;10.966;2022-11-20T05:01:13;27.47;;;13.73;;
29500;SDS011;16450;50.288;10.966;2022-11-20T05:04:16;30.83;;;15.57;;
29500;SDS011;16450;50.288;10.966;2022-11-20T05:07:16;29.10;;;15.17;;
29500;SDS011;16450;50.288;10.966;2022-11-20T05:10:17;28.60;;;14.50;;
29500;SDS011;16450;50.288;10.966;2022-11-20T05:13:18;28.90;;;14.33;;
29500;SDS011;16450;50.288;10.966;2022-11-20T05:16:19;27.57;;;14.27;;
29500;SDS011;16450;50.288;10.966;2022-11-20T05:19:23;31.50;;;14.50;;
29500;SDS011;16450;50.288;10.966;2022-11-20T05:22:24;27.03;;;14.17;;
29500;SDS011;16450;50.288;10.966;2022-11-20T05:25:25;26.10;;;13.63;;
29500;SDS011;16450;50.288;10.966;2022-11-20T05:28:26;28.83;;;13.03;;
29500;SDS011;16450;50.288;10.966;2022-11-20T05:31:28;25.10;;;12.90;;
29500;SDS011;16450;50.288;10.966;2022-11-20T05:34:28;26.50;;;12.23;;
29500;SDS011;16450;50.288;10.966;2022-11-20T05:37:29;23.53;;;12.60;;
29500;SDS011;16450;50.288;10.966;2022-11-20T05:40:29;23.97;;;12.30;;
29500;SDS011;16450;50.288;10.966;2022-11-20T05:43:33;24.50;;;12.87;;
29500;SDS011;16450;50.288;10.966;2022-11-20T05:46:34;22.87;;;11.83;;
29500;SDS011;16450;50.288;10.966;2022-11-20T05:49:35;24.77;;;12.73;;
29500;SDS011;16450;50.288;10.966;2022-11-20T05:52:36;25.23;;;13.37;;
29500;SDS011;16450;50.288;10.966;2022-11-20T05:55:36;25.93;;;11.97;;
29500;SDS011;16450;50.288;10.966;2022-11-20T05:58:37;23.83;;;12.43;;
29500;SDS011;16450;50.288;10.966;2022-11-20T06:01:38;27.77;;;13.63;;
29500;SDS011;16450;50.288;10.966;2022-11-20T06:04:39;25.97;;;12.90;;
29500;SDS011;16450;50.288;10.966;2022-11-20T06:07:40;28.10;;;14.17;;
29500;SDS011;16450;50.288;10.966;2022-11-20T06:10:40;27.67;;;14.00;;
29500;SDS011;16450;50.288;10.966;2022-11-20T06:13:41;29.10;;;15.00;;
29500;SDS011;16450;50.288;10.966;2022-11-20T06:16:42;27.53;;;13.80;;
29500;SDS011;16450;50.288;10.966;2022-11-20T06:19:42;28.13;;;13.87;;
29500;SDS011;16450;50.288;10.966;2022-11-20T06:22:43;26.97;;;13.60;;
29500;SDS011;16450;50.288;10.966;2022-11-20T06:25:44;26.73;;;12.93;;
29500;SDS011;16450;50.288;10.966;2022-11-20T06:28:44;27.37;;;15.00;;
29500;SDS011;16450;50.288;10.966;2022-11-20T06:31:45;29.87;;;15.03;;
29500;SDS011;16450;50.288;10.966;2022-11-20T06:34:46;32.00;;;15.67;;
29500;SDS011;16450;50.288;10.966;2022-11-20T06:37:47;33.67;;;16.23;;
29500;SDS011;16450;50.288;10.966;2022-11-20T06:40:47;29.10;;;15.90;;
29500;SDS011;16450;50.288;10.966;2022-11-20T06:43:48;32.23;;;16.23;;
29500;SDS011;16450;50.288;10.966;2022-11-20T06:46:49;32.60;;;16.27;;
29500;SDS011;16450;50.288;10.966;2022-11-20T06:49:50;32.23;;;16.53;;
29500;SDS011;16450;50.288;10.966;2022-11-20T06:52:51;34.67;;;16.67;;
29500;SDS011;16450;50.288;10.966;2022-11-20T06:55:52;33.13;;;15.93;;
29500;SDS011;16450;50.288;10.966;2022-11-20T06:58:55;33.57;;;16.87;;
29500;SDS011;16450;50.288;10.966;2022-11-20T07:01:56;31.57;;;17.10;;
29500;SDS011;16450;50.288;10.966;2022-11-20T07:04:56;34.57;;;17.17;;
29500;SDS011;16450;50.288;10.966;2022-11-20T07:07:57;33.80;;;16.77;;
29500;SDS011;16450;50.288;10.966;2022-11-20T07:11:01;34.07;;;17.10;;
29500;SDS011;16450;50.288;10.966;2022-11-20T07:14:04;32.57;;;16.30;;
29500;SDS011;16450;50.288;10.966;2022-11-20T07:17:04;31.03;;;15.90;;
29500;SDS011;16450;50.288;10.966;2022-11-20T07:20:05;30.53;;;15.77;;
29500;SDS011;16450;50.288;10.966;2022-11-20T07:23:06;29.63;;;15.33;;
29500;SDS011;16450;50.288;10.966;2022-11-20T07:26:08;34.67;;;16.13;;
29500;SDS011;16450;50.288;10.966;2022-11-20T07:29:10;33.87;;;16.97;;
29500;SDS011;16450;50.288;10.966;2022-11-20T07:32:10;34.33;;;16.83;;
29500;SDS011;16450;50.288;10.966;2022-11-20T07:35:11;34.33;;;16.90;;
29500;SDS011;16450;50.288;10.966;2022-11-20T07:38:12;31.63;;;15.73;;
29500;SDS011;16450;50.288;10.966;2022-11-20T07:41:14;35.23;;;17.53;;
29500;SDS011;16450;50.288;10.966;2022-11-20T07:44:15;32.07;;;16.27;;
29500;SDS011;16450;50.288;10.966;2022-11-20T07:47:15;34.77;;;16.40;;
29500;SDS011;16450;50.288;10.966;2022-11-20T07:50:16;32.10;;;17.57;;
29500;SDS011;16450;50.288;10.966;2022-11-20T07:53:17;35.17;;;18.13;;
29500;SDS011;16450;50.288;10.966;2022-11-20T07:56:20;33.47;;;17.10;;
29500;SDS011;16450;50.288;10.966;2022-11-20T07:59:21;33.30;;;16.87;;
29500;SDS011;16450;50.288;10.966;2022-11-20T08:02:22;37.13;;;17.90;;
29500;SDS011;16450;50.288;10.966;2022-11-20T08:05:23;35.10;;;17.63;;
29500;SDS011;16450;50.288;10.966;2022-11-20T08:08:23;32.73;;;17.67;;
29500;SDS011;16450;50.288;10.966;2022-11-20T08:11:24;35.80;;;19.67;;
29500;SDS011;16450;50.288;10.966;2022-11-20T08:14:43;36.57;;;18.87;;
29500;SDS011;16450;50.288;10.966;2022-11-20T08:17:43;41.63;;;21.07;;
29500;SDS011;16450;50.288;10.966;2022-11-20T08:20:44;38.47;;;18.23;;
29500;SDS011;16450;50.288;10.966;2022-11-20T08:23:45;33.83;;;17.37;;
29500;SDS011;16450;50.288;10.966;2022-11-20T08:26:46;32.90;;;17.90;;
29500;SDS011;16450;50.288;10.966;2022-11-20T08:29:47;36.10;;;17.60;;
29500;SDS011;16450;50.288;10.966;2022-11-20T08:32:47;32.70;;;17.10;;
29500;SDS011;16450;50.288;10.966;2022-11-20T08:35:48;34.53;;;18.20;;
29500;SDS011;16450;50.288;10.966;2022-11-20T08:38:49;32.00;;;16.43;;
29500;SDS011;16450;50.288;10.966;2022-11-20T08:41:51;33.30;;;17.63;;
29500;SDS011;16450;50.288;10.966;2022-11-20T08:44:52;33.50;;;16.87;;
29500;SDS011;16450;50.288;10.966;2022-11-20T08:47:52;32.00;;;16.13;;
29500;SDS011;16450;50.288;10.966;2022-11-20T08:50:53;33.33;;;16.57;;
29500;SDS011;16450;50.288;10.966;2022-11-20T08:53:59;35.43;;;17.77;;
29500;SDS011;16450;50.288;10.966;2022-11-20T08:57:00;36.83;;;18.27;;
29500;SDS011;16450;50.288;10.966;2022-11-20T09:00:00;35.40;;;17.80;;
29500;SDS011;16450;50.288;10.966;2022-11-20T09:03:03;36.97;;;18.13;;
29500;SDS011;16450;50.288;10.966;2022-11-20T09:06:04;35.43;;;17.80;;
29500;SDS011;16450;50.288;10.966;2022-11-20T09:09:06;32.80;;;17.33;;
29500;SDS011;16450;50.288;10.966;2022-11-20T09:12:07;36.53;;;17.97;;
29500;SDS011;16450;50.288;10.966;2022-11-20T09:15:08;35.23;;;18.77;;
29500;SDS011;16450;50.288;10.966;2022-11-20T09:18:09;36.23;;;18.33;;
29500;SDS011;16450;50.288;10.966;2022-11-20T09:21:10;34.17;;;17.67;;
29500;SDS011;16450;50.288;10.966;2022-11-20T09:24:12;34.37;;;18.23;;
29500;SDS011;16450;50.288;10.966;2022-11-20T09:27:12;36.77;;;19.33;;
29500;SDS011;16450;50.288;10.966;2022-11-20T09:30:14;37.87;;;18.87;;
29500;SDS011;16450;50.288;10.966;2022-11-20T09:33:15;37.73;;;20.27;;
29500;SDS011;16450;50.288;10.966;2022-11-20T09:36:16;40.13;;;20.37;;
29500;SDS011;16450;50.288;10.966;2022-11-20T09:39:18;38.60;;;19.67;;
29500;SDS011;16450;50.288;10.966;2022-11-20T09:46:01;37.93;;;19.00;;
29500;SDS011;16450;50.288;10.966;2022-11-20T09:49:20;39.87;;;18.93;;
29500;SDS011;16450;50.288;10.966;2022-11-20T09:52:58;39.53;;;19.67;;
29500;SDS011;16450;50.288;10.966;2022-11-20T09:56:15;38.47;;;20.03;;
29500;SDS011;16450;50.288;10.966;2022-11-20T09:59:23;43.10;;;21.03;;
29500;SDS011;16450;50.288;10.966;2022-11-20T10:05:44;42.23;;;20.73;;
29500;SDS011;16450;50.288;10.966;2022-11-20T10:08:49;43.47;;;20.40;;
29500;SDS011;16450;50.288;10.966;2022-11-20T10:12:09;37.43;;;20.13;;
29500;SDS011;16450;50.288;10.966;2022-11-20T10:15:34;39.70;;;18.63;;
29500;SDS011;16450;50.288;10.966;2022-11-20T10:25:20;44.73;;;21.00;;
29500;SDS011;16450;50.288;10.966;2022-11-20T10:31:40;39.73;;;19.80;;
29500;SDS011;16450;50.288;10.966;2022-11-20T10:38:02;43.10;;;21.33;;
29500;SDS011;16450;50.288;10.966;2022-11-20T10:41:10;44.53;;;21.40;;
29500;SDS011;16450;50.288;10.966;2022-11-20T10:44:26;45.57;;;21.63;;
29500;SDS011;16450;50.288;10.966;2022-11-20T10:47:47;42.63;;;21.07;;
29500;SDS011;16450;50.288;10.966;2022-11-20T10:50:51;47.40;;;21.90;;
29500;SDS011;16450;50.288;10.966;2022-11-20T11:00:25;45.87;;;22.57;;
29500;SDS011;16450;50.288;10.966;2022-11-20T11:03:27;46.17;;;23.20;;
29500;SDS011;16450;50.288;10.966;2022-11-20T11:06:35;47.87;;;24.70;;
29500;SDS011;16450;50.288;10.966;2022-11-20T11:09:43;43.77;;;22.70;;
29500;SDS011;16450;50.288;10.966;2022-11-20T11:12:47;44.37;;;22.87;;
29500;SDS011;16450;50.288;10.966;2022-11-20T11:15:48;37.87;;;20.30;;
29500;SDS011;16450;50.288;10.966;2022-11-20T11:18:49;49.03;;;24.37;;
29500;SDS011;16450;50.288;10.966;2022-11-20T11:21:54;45.93;;;22.07;;
29500;SDS011;16450;50.288;10.966;2022-11-20T11:24:56;52.90;;;23.93;;
29500;SDS011;16450;50.288;10.966;2022-11-20T11:28:00;46.73;;;22.17;;
29500;SDS011;16450;50.288;10.966;2022-11-20T11:31:24;49.07;;;23.33;;
29500;SDS011;16450;50.288;10.966;2022-11-20T11:34:31;47.50;;;23.07;;
29500;SDS011;16450;50.288;10.966;2022-11-20T11:37:33;51.17;;;23.30;;
29500;SDS011;16450;50.288;10.966;2022-11-20T11:40:35;54.60;;;23.87;;
29500;SDS011;16450;50.288;10.966;2022-11-20T11:43:38;54.53;;;25.90;;
29500;SDS011;16450;50.288;10.966;2022-11-20T11:46:57;48.67;;;23.90;;
29500;SDS011;16450;50.288;10.966;2022-11-20T11:53:20;51.33;;;24.73;;
29500;SDS011;16450;50.288;10.966;2022-11-20T11:56:23;56.57;;;24.20;;
29500;SDS011;16450;50.288;10.966;2022-11-20T11:59:39;52.87;;;23.40;;
29500;SDS011;16450;50.288;10.966;2022-11-20T12:06:20;56.30;;;26.13;;
29500;SDS011;16450;50.288;10.966;2022-11-20T12:09:20;55.13;;;24.67;;
29500;SDS011;16450;50.288;10.966;2022-11-20T12:12:30;60.63;;;26.57;;
29500;SDS011;16450;50.288;10.966;2022-11-20T12:15:37;58.67;;;26.53;;
29500;SDS011;16450;50.288;10.966;2022-11-20T12:18:45;64.33;;;27.50;;
29500;SDS011;16450;50.288;10.966;2022-11-20T12:21:56;57.23;;;25.53;;
29500;SDS011;16450;50.288;10.966;2022-11-20T12:25:14;56.07;;;26.10;;
29500;SDS011;16450;50.288;10.966;2022-11-20T12:31:56;64.23;;;25.80;;
29500;SDS011;16450;50.288;10.966;2022-11-20T12:35:26;60.03;;;24.70;;
29500;SDS011;16450;50.288;10.966;2022-11-20T12:45:56;56.30;;;24.03;;
29500;SDS011;16450;50.288;10.966;2022-11-20T12:49:08;57.67;;;25.03;;
29500;SDS011;16450;50.288;10.966;2022-11-20T12:55:24;60.83;;;26.53;;
29500;SDS011;16450;50.288;10.966;2022-11-20T12:59:07;58.77;;;26.80;;
29500;SDS011;16450;50.288;10.966;2022-11-20T13:02:18;57.40;;;25.20;;
29500;SDS011;16450;50.288;10.966;2022-11-20T13:05:30;65.70;;;30.10;;
29500;SDS011;16450;50.288;10.966;2022-11-20T13:08:42;62.17;;;27.23;;
29500;SDS011;16450;50.288;10.966;2022-11-20T13:12:06;58.60;;;25.00;;
29500;SDS011;16450;50.288;10.966;2022-11-20T13:18:39;58.00;;;25.07;;
29500;SDS011;16450;50.288;10.966;2022-11-20T13:21:43;60.03;;;24.83;;
29500;SDS011;16450;50.288;10.966;2022-11-20T13:24:50;59.07;;;24.37;;
29500;SDS011;16450;50.288;10.966;2022-11-20T13:27:52;65.40;;;26.17;;
29500;SDS011;16450;50.288;10.966;2022-11-20T13:30:54;61.87;;;25.97;;
29500;SDS011;16450;50.288;10.966;2022-11-20T13:33:56;58.47;;;24.67;;
29500;SDS011;16450;50.288;10.966;2022-11-20T13:36:58;59.03;;;24.07;;
29500;SDS011;16450;50.288;10.966;2022-11-20T13:43:14;56.67;;;25.57;;
29500;SDS011;16450;50.288;10.966;2022-11-20T13:46:44;61.40;;;25.13;;
29500;SDS011;16450;50.288;10.966;2022-11-20T13:49:45;59.07;;;25.20;;
29500;SDS011;16450;50.288;10.966;2022-11-20T13:56:05;57.53;;;24.33;;
29500;SDS011;16450;50.288;10.966;2022-11-20T14:02:44;59.00;;;23.77;;
29500;SDS011;16450;50.288;10.966;2022-11-20T14:06:03;57.93;;;22.97;;
29500;SDS011;16450;50.288;10.966;2022-11-20T14:09:24;53.00;;;22.70;;
29500;SDS011;16450;50.288;10.966;2022-11-20T14:12:31;58.53;;;24.03;;
29500;SDS011;16450;50.288;10.966;2022-11-20T14:15:33;59.43;;;23.20;;
29500;SDS011;16450;50.288;10.966;2022-11-20T14:18:34;62.70;;;25.70;;
29500;SDS011;16450;50.288;10.966;2022-11-20T14:21:35;63.33;;;25.63;;
29500;SDS011;16450;50.288;10.966;2022-11-20T14:24:36;55.97;;;23.60;;
29500;SDS011;16450;50.288;10.966;2022-11-20T14:27:37;61.87;;;23.23;;
29500;SDS011;16450;50.288;10.966;2022-11-20T14:30:44;58.07;;;24.27;;
29500;SDS011;16450;50.288;10.966;2022-11-20T14:33:47;64.40;;;25.10;;
29500;SDS011;16450;50.288;10.966;2022-11-20T14:36:48;59.40;;;22.53;;
29500;SDS011;16450;50.288;10.966;2022-11-20T14:39:54;56.90;;;22.33;;
29500;SDS011;16450;50.288;10.966;2022-11-20T14:42:56;57.23;;;22.03;;
29500;SDS011;16450;50.288;10.966;2022-11-20T14:45:58;62.20;;;23.40;;
29500;SDS011;16450;50.288;10.966;2022-11-20T14:49:04;63.47;;;24.47;;
29500;SDS011;16450;50.288;10.966;2022-11-20T14:52:15;62.37;;;23.87;;
29500;SDS011;16450;50.288;10.966;2022-11-20T14:55:24;61.67;;;23.83;;
29500;SDS011;16450;50.288;10.966;2022-11-20T14:58:36;57.63;;;22.13;;
29500;SDS011;16450;50.288;10.966;2022-11-20T15:01:36;62.30;;;23.33;;
29500;SDS011;16450;50.288;10.966;2022-11-20T15:04:47;58.57;;;23.13;;
29500;SDS011;16450;50.288;10.966;2022-11-20T15:07:51;65.43;;;24.17;;
29500;SDS011;16450;50.288;10.966;2022-11-20T15:11:14;74.90;;;28.40;;
29500;SDS011;16450;50.288;10.966;2022-11-20T15:14:17;147.90;;;92.03;;
29500;SDS011;16450;50.288;10.966;2022-11-20T15:17:18;79.20;;;39.83;;
29500;SDS011;16450;50.288;10.966;2022-11-20T15:20:19;74.10;;;30.77;;
29500;SDS011;16450;50.288;10.966;2022-11-20T15:23:23;71.50;;;32.20;;
29500;SDS011;16450;50.288;10.966;2022-11-20T15:26:26;66.93;;;28.57;;
29500;SDS011;16450;50.288;10.966;2022-11-20T15:29:27;66.47;;;25.17;;
29500;SDS011;16450;50.288;10.966;2022-11-20T15:32:28;60.97;;;24.20;;
29500;SDS011;16450;50.288;10.966;2022-11-20T15:35:29;55.47;;;23.03;;
29500;SDS011;16450;50.288;10.966;2022-11-20T15:38:29;50.87;;;20.47;;
29500;SDS011;16450;50.288;10.966;2022-11-20T15:41:30;64.47;;;23.10;;
29500;SDS011;16450;50.288;10.966;2022-11-20T15:44:30;52.57;;;20.60;;
29500;SDS011;16450;50.288;10.966;2022-11-20T15:47:32;57.03;;;22.30;;
29500;SDS011;16450;50.288;10.966;2022-11-20T15:50:36;57.03;;;22.27;;
29500;SDS011;16450;50.288;10.966;2022-11-20T15:53:39;63.23;;;25.47;;
29500;SDS011;16450;50.288;10.966;2022-11-20T15:56:41;68.47;;;28.47;;
29500;SDS011;16450;50.288;10.966;2022-11-20T15:59:41;78.87;;;36.93;;
29500;SDS011;16450;50.288;10.966;2022-11-20T16:02:42;76.50;;;29.60;;
29500;SDS011;16450;50.288;10.966;2022-11-20T16:05:43;66.23;;;28.37;;
29500;SDS011;16450;50.288;10.966;2022-11-20T16:08:44;70.43;;;26.20;;
29500;SDS011;16450;50.288;10.966;2022-11-20T16:11:45;61.80;;;23.77;;
29500;SDS011;16450;50.288;10.966;2022-11-20T16:14:46;68.27;;;27.47;;
29500;SDS011;16450;50.288;10.966;2022-11-20T16:18:06;62.10;;;24.43;;
29500;SDS011;16450;50.288;10.966;2022-11-20T16:21:10;55.70;;;22.20;;
29500;SDS011;16450;50.288;10.966;2022-11-20T16:24:13;63.47;;;25.37;;
29500;SDS011;16450;50.288;10.966;2022-11-20T16:27:14;60.63;;;24.87;;
29500;SDS011;16450;50.288;10.966;2022-11-20T16:30:15;64.13;;;26.90;;
29500;SDS011;16450;50.288;10.966;2022-11-20T16:33:16;64.77;;;26.23;;
29500;SDS011;16450;50.288;10.966;2022-11-20T16:36:17;65.17;;;26.67;;
29500;SDS011;16450;50.288;10.966;2022-11-20T16:39:19;59.33;;;23.93;;
29500;SDS011;16450;50.288;10.966;2022-11-20T16:42:19;58.60;;;23.90;;
29500;SDS011;16450;50.288;10.966;2022-11-20T16:45:20;59.97;;;23.47;;
29500;SDS011;16450;50.288;10.966;2022-11-20T16:48:21;59.67;;;23.10;;
29500;SDS011;16450;50.288;10.966;2022-11-20T16:51:22;57.37;;;22.67;;
29500;SDS011;16450;50.288;10.966;2022-11-20T16:54:23;63.67;;;23.40;;
29500;SDS011;16450;50.288;10.966;2022-11-20T16:57:26;51.80;;;22.10;;
29500;SDS011;16450;50.288;10.966;2022-11-20T17:00:28;58.50;;;22.90;;
29500;SDS011;16450;50.288;10.966;2022-11-20T17:03:29;57.60;;;22.27;;
29500;SDS011;16450;50.288;10.966;2022-11-20T17:06:30;59.80;;;22.13;;
29500;SDS011;16450;50.288;10.966;2022-11-20T17:09:35;58.20;;;21.63;;
29500;SDS011;16450;50.288;10.966;2022-11-20T17:12:36;56.83;;;22.83;;
29500;SDS011;16450;50.288;10.966;2022-11-20T17:15:36;57.47;;;22.50;;
29500;SDS011;16450;50.288;10.966;2022-11-20T17:18:37;57.33;;;23.43;;
29500;SDS011;16450;50.288;10.966;2022-11-20T17:21:38;61.47;;;26.80;;
29500;SDS011;16450;50.288;10.966;2022-11-20T17:24:39;66.10;;;26.03;;
29500;SDS011;16450;50.288;10.966;2022-11-20T17:27:39;62.83;;;26.27;;
29500;SDS011;16450;50.288;10.966;2022-11-20T17:30:40;63.43;;;24.03;;
29500;SDS011;16450;50.288;10.966;2022-11-20T17:33:41;58.87;;;25.07;;
29500;SDS011;16450;50.288;10.966;2022-11-20T17:36:43;62.50;;;23.30;;
29500;SDS011;16450;50.288;10.966;2022-11-20T17:39:44;59.13;;;23.27;;
29500;SDS011;16450;50.288;10.966;2022-11-20T17:42:45;58.80;;;24.17;;
29500;SDS011;16450;50.288;10.966;2022-11-20T17:45:46;57.90;;;25.93;;
29500;SDS011;16450;50.288;10.966;2022-11-20T17:48:47;59.00;;;25.10;;
29500;SDS011;16450;50.288;10.966;2022-11-20T17:51:48;53.90;;;24.80;;
29500;SDS011;16450;50.288;10.966;2022-11-20T17:54:49;57.17;;;25.67;;
29500;SDS011;16450;50.288;10.966;2022-11-20T17:57:54;56.43;;;27.30;;
29500;SDS011;16450;50.288;10.966;2022-11-20T18:01:03;55.17;;;25.40;;
29500;SDS011;16450;50.288;10.966;2022-11-20T18:04:05;55.43;;;25.70;;
29500;SDS011;16450;50.288;10.966;2022-11-20T18:07:05;72.93;;;33.47;;
29500;SDS011;16450;50.288;10.966;2022-11-20T18:10:06;68.23;;;31.67;;
29500;SDS011;16450;50.288;10.966;2022-11-20T18:13:08;64.40;;;28.90;;
29500;SDS011;16450;50.288;10.966;2022-11-20T18:16:08;68.10;;;31.17;;
29500;SDS011;16450;50.288;10.966;2022-11-20T18:19:10;56.27;;;27.47;;
29500;SDS011;16450;50.288;10.966;2022-11-20T18:22:13;54.97;;;26.07;;
29500;SDS011;16450;50.288;10.966;2022-11-20T18:25:15;55.53;;;26.77;;
29500;SDS011;16450;50.288;10.966;2022-11-20T18:28:16;51.57;;;22.90;;
29500;SDS011;16450;50.288;10.966;2022-11-20T18:31:18;49.13;;;23.83;;
29500;SDS011;16450;50.288;10.966;2022-11-20T18:34:19;51.10;;;22.73;;
29500;SDS011;16450;50.288;10.966;2022-11-20T18:37:20;47.20;;;23.13;;
29500;SDS011;16450;50.288;10.966;2022-11-20T18:40:21;52.67;;;24.63;;
29500;SDS011;16450;50.288;10.966;2022-11-20T18:43:22;45.03;;;22.30;;